Time;durP1;ratioP1;P1;durP2;ratioP2;P2;SDS_P1;SDS_P2;PMS_P1;PMS_P2;Temp;Humidity;BMP_temperature;BMP_pressure;BME280_temperature;BME280_humidity;BME280_pressure;Samples;Min_cycle;Max_cycle;Signal;HPM_P1;HPM_P2
2023/01/22 00:02:02;;;;;;;14.82;8.80;;;;;;;;;;4990713;28;20026;-73
2023/01/22 00:04:29;;;;;;;13.40;9.20;;;;;;;;;;4992004;28;20023;-74
2023/01/22 00:06:55;;;;;;;13.55;9.93;;;;;;;;;;4991871;28;20030;-73
2023/01/22 00:09:21;;;;;;;13.10;9.07;;;;;;;;;;4991430;28;20081;-73
2023/01/22 00:11:50;;;;;;;16.95;10.10;;;;;;;;;;4991999;28;20057;-73
2023/01/22 00:14:16;;;;;;;13.00;9.48;;;;;;;;;;4991598;28;20477;-73
2023/01/22 00:16:42;;;;;;;17.13;10.55;;;;;;;;;;5006642;22;20077;-71
2023/01/22 00:19:08;;;;;;;12.20;9.45;;;;;;;;;;4990422;28;20041;-72
2023/01/22 00:21:34;;;;;;;13.75;9.82;;;;;;;;;;4991710;28;20034;-71
2023/01/22 00:24:01;;;;;;;12.65;9.80;;;;;;;;;;4991936;28;20030;-71
2023/01/22 00:26:27;;;;;;;13.90;11.00;;;;;;;;;;4991836;28;20022;-71
2023/01/22 00:28:53;;;;;;;15.60;9.57;;;;;;;;;;4990346;28;20488;-71
2023/01/22 00:31:19;;;;;;;15.68;10.13;;;;;;;;;;4990673;28;20026;-72
2023/01/22 00:33:46;;;;;;;19.25;11.68;;;;;;;;;;4991891;28;20026;-72
2023/01/22 00:36:20;;;;;;;15.25;9.98;;;;;;;;;;4992161;28;20102;-72
2023/01/22 00:38:46;;;;;;;17.63;10.27;;;;;;;;;;4990557;28;20161;-72
2023/01/22 00:41:12;;;;;;;15.35;10.15;;;;;;;;;;4992192;28;20057;-72
2023/01/22 00:43:39;;;;;;;19.50;10.32;;;;;;;;;;4990820;28;20027;-72
2023/01/22 00:46:06;;;;;;;13.32;9.65;;;;;;;;;;4991848;28;20107;-72
2023/01/22 00:48:32;;;;;;;13.73;9.70;;;;;;;;;;4991599;28;20026;-71
2023/01/22 00:50:58;;;;;;;19.00;10.82;;;;;;;;;;4990270;28;20029;-72
2023/01/22 00:53:24;;;;;;;16.65;11.30;;;;;;;;;;4993073;28;20026;-72
2023/01/22 00:56:00;;;;;;;15.27;10.80;;;;;;;;;;4995667;28;20026;-72
2023/01/22 00:58:26;;;;;;;15.70;11.00;;;;;;;;;;4995143;28;20026;-72
2023/01/22 01:00:52;;;;;;;15.68;11.18;;;;;;;;;;4995202;28;20022;-72
2023/01/22 01:03:31;;;;;;;18.00;11.77;;;;;;;;;;4993767;28;20028;-72
2023/01/22 01:05:57;;;;;;;18.17;11.80;;;;;;;;;;4995081;28;20138;-71
2023/01/22 01:08:23;;;;;;;16.25;12.07;;;;;;;;;;4995339;28;20118;-72
2023/01/22 01:10:59;;;;;;;17.27;11.15;;;;;;;;;;4993894;28;20030;-72
2023/01/22 01:13:26;;;;;;;20.00;12.30;;;;;;;;;;4993914;28;20113;-71
2023/01/22 01:16:02;;;;;;;17.75;12.77;;;;;;;;;;4995298;28;20030;-72
2023/01/22 01:18:28;;;;;;;18.73;12.45;;;;;;;;;;4995233;28;20608;-72
2023/01/22 01:20:55;;;;;;;20.40;11.43;;;;;;;;;;4995068;28;20037;-72
2023/01/22 01:23:21;;;;;;;23.95;13.55;;;;;;;;;;4994738;28;20081;-72
2023/01/22 01:25:47;;;;;;;17.95;11.77;;;;;;;;;;4994409;28;20030;-72
2023/01/22 01:28:13;;;;;;;17.83;11.75;;;;;;;;;;4994228;28;20404;-72
2023/01/22 01:30:39;;;;;;;20.15;12.55;;;;;;;;;;4994529;28;20022;-72
2023/01/22 01:33:05;;;;;;;20.23;11.85;;;;;;;;;;4994461;28;20102;-72
2023/01/22 01:35:31;;;;;;;17.98;12.23;;;;;;;;;;4994350;28;20493;-73
2023/01/22 01:37:57;;;;;;;19.67;12.73;;;;;;;;;;4994215;28;20019;-72
2023/01/22 01:40:23;;;;;;;18.65;11.27;;;;;;;;;;4994240;28;20034;-72
2023/01/22 01:42:49;;;;;;;21.75;12.45;;;;;;;;;;4994229;28;20026;-72
2023/01/22 01:45:18;;;;;;;17.77;11.82;;;;;;;;;;4994484;28;20033;-72
2023/01/22 01:47:44;;;;;;;18.55;11.90;;;;;;;;;;4993836;28;20166;-72
2023/01/22 01:50:10;;;;;;;18.02;12.05;;;;;;;;;;4994189;28;20026;-72
2023/01/22 01:52:36;;;;;;;19.58;11.38;;;;;;;;;;4992827;28;20116;-72
2023/01/22 01:55:03;;;;;;;18.08;10.63;;;;;;;;;;4993956;28;20022;-72
2023/01/22 01:57:30;;;;;;;18.85;12.25;;;;;;;;;;4993815;28;20026;-72
2023/01/22 01:59:57;;;;;;;17.90;12.20;;;;;;;;;;4993873;28;20014;-72
2023/01/22 02:02:23;;;;;;;18.35;10.40;;;;;;;;;;4994132;28;20081;-72
2023/01/22 02:04:50;;;;;;;15.80;10.63;;;;;;;;;;4994117;28;20022;-71
2023/01/22 02:07:19;;;;;;;16.90;11.40;;;;;;;;;;4994524;28;20046;-72
2023/01/22 02:09:46;;;;;;;21.40;12.57;;;;;;;;;;4993969;28;20093;-72
2023/01/22 02:12:12;;;;;;;17.02;11.40;;;;;;;;;;4993922;28;20033;-72
2023/01/22 02:14:39;;;;;;;18.58;12.88;;;;;;;;;;4994185;28;20029;-72
2023/01/22 02:17:13;;;;;;;22.10;13.25;;;;;;;;;;4993410;28;20535;-71
2023/01/22 02:19:40;;;;;;;16.58;11.77;;;;;;;;;;4978783;28;20106;-72
2023/01/22 02:22:35;;;;;;;18.67;12.15;;;;;;;;;;4993535;28;20038;-72
2023/01/22 02:25:01;;;;;;;18.10;12.23;;;;;;;;;;4985298;28;20030;-72
2023/01/22 02:27:27;;;;;;;22.60;12.70;;;;;;;;;;4993171;28;20415;-72
2023/01/22 02:29:53;;;;;;;20.65;13.35;;;;;;;;;;4993427;28;20105;-72
2023/01/22 02:32:19;;;;;;;19.25;12.45;;;;;;;;;;4993799;28;20022;-71
2023/01/22 02:34:45;;;;;;;18.58;12.35;;;;;;;;;;4993316;28;20618;-72
2023/01/22 02:37:11;;;;;;;20.95;12.63;;;;;;;;;;4992898;28;20018;-71
2023/01/22 02:39:37;;;;;;;19.35;12.32;;;;;;;;;;4993453;28;20054;-71
2023/01/22 02:42:04;;;;;;;19.10;11.32;;;;;;;;;;4993250;28;20026;-72
2023/01/22 02:44:31;;;;;;;16.52;11.57;;;;;;;;;;4993290;28;20366;-72
2023/01/22 02:46:57;;;;;;;20.73;12.60;;;;;;;;;;4992855;28;20049;-72
2023/01/22 02:49:23;;;;;;;18.00;11.55;;;;;;;;;;4992956;28;20026;-72
2023/01/22 02:51:49;;;;;;;17.05;12.38;;;;;;;;;;4989457;28;20037;-72
2023/01/22 02:54:15;;;;;;;16.75;12.15;;;;;;;;;;4991467;28;20492;-72
2023/01/22 02:56:41;;;;;;;19.20;12.27;;;;;;;;;;4992435;28;20511;-72
2023/01/22 02:59:07;;;;;;;18.48;11.93;;;;;;;;;;4992693;28;20026;-72
2023/01/22 03:01:33;;;;;;;19.42;11.88;;;;;;;;;;4992881;28;20018;-72
2023/01/22 03:04:12;;;;;;;16.63;11.82;;;;;;;;;;4993213;28;20036;-72
2023/01/22 03:06:39;;;;;;;18.48;12.25;;;;;;;;;;4992858;28;20034;-72
2023/01/22 03:09:05;;;;;;;19.25;12.27;;;;;;;;;;4992616;28;20134;-72
2023/01/22 03:11:32;;;;;;;17.55;11.93;;;;;;;;;;4992824;28;20077;-72
2023/01/22 03:22:14;;;;;;;18.92;11.98;;;;;;;;;;4992937;28;20041;-72
2023/01/22 03:24:40;;;;;;;17.77;11.65;;;;;;;;;;4992565;28;20500;-72
2023/01/22 03:27:06;;;;;;;19.02;11.70;;;;;;;;;;4992062;28;20473;-71
2023/01/22 03:29:33;;;;;;;16.33;11.15;;;;;;;;;;4992423;28;20034;-73
2023/01/22 03:31:59;;;;;;;17.45;11.05;;;;;;;;;;4990949;28;20019;-73
2023/01/22 03:34:25;;;;;;;15.00;10.30;;;;;;;;;;4992292;28;20076;-73
2023/01/22 03:36:51;;;;;;;16.60;10.93;;;;;;;;;;4992169;28;20395;-72
2023/01/22 03:39:17;;;;;;;15.55;11.10;;;;;;;;;;4991984;28;20026;-72
2023/01/22 03:41:43;;;;;;;14.88;10.60;;;;;;;;;;4992300;28;20038;-72
2023/01/22 03:44:10;;;;;;;13.40;9.73;;;;;;;;;;4992008;28;20042;-72
2023/01/22 03:46:38;;;;;;;15.25;9.93;;;;;;;;;;4991881;28;20041;-72
2023/01/22 03:49:04;;;;;;;17.45;11.65;;;;;;;;;;4991816;28;20488;-72
2023/01/22 03:51:30;;;;;;;17.30;11.85;;;;;;;;;;4990695;28;20054;-72
2023/01/22 03:53:57;;;;;;;16.77;10.77;;;;;;;;;;4992156;28;20105;-73
2023/01/22 03:56:23;;;;;;;17.17;11.77;;;;;;;;;;4991883;28;20026;-72
2023/01/22 03:58:49;;;;;;;21.30;12.40;;;;;;;;;;4991725;28;20022;-72
2023/01/22 04:01:18;;;;;;;18.88;12.23;;;;;;;;;;4991744;28;20034;-72
2023/01/22 04:03:44;;;;;;;17.73;12.15;;;;;;;;;;4992195;28;20061;-73
2023/01/22 04:06:11;;;;;;;17.35;11.55;;;;;;;;;;4991944;28;20140;-73
2023/01/22 04:08:38;;;;;;;17.33;11.48;;;;;;;;;;4991879;28;20401;-73
2023/01/22 04:11:05;;;;;;;17.92;11.45;;;;;;;;;;4991338;28;20057;-73
2023/01/22 04:13:31;;;;;;;16.15;10.80;;;;;;;;;;4993285;28;20021;-72
2023/01/22 04:15:57;;;;;;;18.30;11.45;;;;;;;;;;4992283;28;20038;-73
2023/01/22 04:18:23;;;;;;;17.58;11.73;;;;;;;;;;4991825;28;20026;-72
2023/01/22 04:20:50;;;;;;;19.60;12.05;;;;;;;;;;4992033;28;20026;-73
2023/01/22 04:23:16;;;;;;;17.02;12.00;;;;;;;;;;4991923;28;20130;-73
2023/01/22 04:25:42;;;;;;;15.65;11.50;;;;;;;;;;4991699;28;20030;-73
2023/01/22 04:28:09;;;;;;;17.70;11.88;;;;;;;;;;4992795;28;20081;-73
2023/01/22 04:30:36;;;;;;;19.98;12.18;;;;;;;;;;4994413;28;20050;-73
2023/01/22 04:33:02;;;;;;;20.10;12.70;;;;;;;;;;4995679;28;20025;-73
2023/01/22 04:35:28;;;;;;;21.73;12.35;;;;;;;;;;4995413;28;20022;-72
2023/01/22 04:37:54;;;;;;;19.00;12.43;;;;;;;;;;4995383;28;20030;-72
2023/01/22 04:40:20;;;;;;;22.00;13.15;;;;;;;;;;4995708;28;20089;-72
2023/01/22 04:42:46;;;;;;;19.70;12.57;;;;;;;;;;4995598;28;20042;-73
2023/01/22 04:45:12;;;;;;;24.52;12.60;;;;;;;;;;4995317;28;20026;-72
2023/01/22 04:47:42;;;;;;;20.65;12.45;;;;;;;;;;4995121;28;20022;-72
2023/01/22 04:50:11;;;;;;;19.20;12.30;;;;;;;;;;4995316;28;20022;-72
2023/01/22 04:52:37;;;;;;;21.52;13.35;;;;;;;;;;4995433;28;20393;-71
2023/01/22 04:55:03;;;;;;;20.50;12.57;;;;;;;;;;4995113;28;20018;-72
2023/01/22 04:57:29;;;;;;;23.02;14.52;;;;;;;;;;4995350;28;20015;-71
2023/01/22 04:59:55;;;;;;;24.45;14.23;;;;;;;;;;4994928;28;20029;-72
2023/01/22 05:02:21;;;;;;;21.80;13.93;;;;;;;;;;4996201;28;20500;-71
2023/01/22 05:04:47;;;;;;;23.52;15.07;;;;;;;;;;4995798;28;20030;-72
2023/01/22 05:07:13;;;;;;;19.67;13.23;;;;;;;;;;4994783;28;20457;-71
2023/01/22 05:09:42;;;;;;;23.95;14.50;;;;;;;;;;4995044;28;20053;-72
2023/01/22 05:12:08;;;;;;;23.55;13.45;;;;;;;;;;4994858;28;20026;-72
2023/01/22 05:14:34;;;;;;;26.45;15.02;;;;;;;;;;4995132;28;20014;-71
2023/01/22 05:16:59;;;;;;;24.52;14.77;;;;;;;;;;4993424;28;20500;-71
2023/01/22 05:19:25;;;;;;;28.20;15.57;;;;;;;;;;4994749;28;20073;-72
2023/01/22 05:21:51;;;;;;;24.00;15.07;;;;;;;;;;4994914;28;20413;-72
2023/01/22 05:24:17;;;;;;;29.02;15.73;;;;;;;;;;4993761;28;20057;-70
2023/01/22 05:26:44;;;;;;;22.13;15.05;;;;;;;;;;4995067;28;20026;-70
2023/01/22 05:29:10;;;;;;;24.63;15.48;;;;;;;;;;4994592;28;20034;-71
2023/01/22 05:31:36;;;;;;;24.15;14.77;;;;;;;;;;4995052;28;20023;-71
2023/01/22 05:34:02;;;;;;;26.17;14.88;;;;;;;;;;4994834;28;20442;-71
2023/01/22 05:36:28;;;;;;;23.42;13.93;;;;;;;;;;4994854;28;20046;-71
2023/01/22 05:38:55;;;;;;;23.38;15.45;;;;;;;;;;4992494;28;20234;-71
2023/01/22 05:41:21;;;;;;;25.50;14.02;;;;;;;;;;4994826;28;20030;-71
2023/01/22 05:43:47;;;;;;;24.55;14.30;;;;;;;;;;4994927;28;20026;-72
2023/01/22 05:46:13;;;;;;;26.92;15.13;;;;;;;;;;4994992;28;20037;-72
2023/01/22 05:48:39;;;;;;;22.92;13.88;;;;;;;;;;4995131;28;20058;-72
2023/01/22 05:51:06;;;;;;;22.88;14.15;;;;;;;;;;4997369;28;20085;-72
2023/01/22 05:53:33;;;;;;;22.95;13.80;;;;;;;;;;4980694;28;20046;-72
2023/01/22 05:56:01;;;;;;;25.45;14.65;;;;;;;;;;4996184;28;20097;-71
2023/01/22 05:58:27;;;;;;;23.85;14.50;;;;;;;;;;4992981;28;20118;-72
2023/01/22 06:00:53;;;;;;;23.05;15.38;;;;;;;;;;4994946;28;20026;-72
2023/01/22 06:03:19;;;;;;;27.25;16.13;;;;;;;;;;4994544;28;20107;-70
2023/01/22 06:05:45;;;;;;;27.40;16.10;;;;;;;;;;4994434;28;20484;-72
2023/01/22 06:08:14;;;;;;;26.50;15.02;;;;;;;;;;4993807;28;20026;-72
2023/01/22 06:10:40;;;;;;;23.60;14.13;;;;;;;;;;4994023;28;20022;-71
2023/01/22 06:13:06;;;;;;;26.17;15.30;;;;;;;;;;4994360;28;20019;-72
2023/01/22 06:18:03;;;;;;;24.85;15.85;;;;;;;;;;4998544;28;20049;-72
2023/01/22 06:20:29;;;;;;;30.15;15.95;;;;;;;;;;5001947;28;20030;-72
2023/01/22 06:22:55;;;;;;;25.98;16.00;;;;;;;;;;5008839;28;20136;-73
2023/01/22 06:25:21;;;;;;;23.10;14.77;;;;;;;;;;5000700;28;20036;-73
2023/01/22 06:27:47;;;;;;;29.27;15.07;;;;;;;;;;5012309;28;20038;-72
2023/01/22 06:30:13;;;;;;;25.67;15.43;;;;;;;;;;5006638;28;20026;-73
2023/01/22 06:32:39;;;;;;;27.10;16.38;;;;;;;;;;4999630;28;20393;-73
2023/01/22 06:35:05;;;;;;;26.33;15.40;;;;;;;;;;5009500;28;20014;-73
2023/01/22 06:37:31;;;;;;;23.73;14.35;;;;;;;;;;4996582;28;20046;-74
2023/01/22 06:39:57;;;;;;;25.52;15.20;;;;;;;;;;5006576;28;20046;-73
2023/01/22 06:42:23;;;;;;;25.38;15.23;;;;;;;;;;5003731;28;20045;-73
2023/01/22 06:44:50;;;;;;;26.33;14.85;;;;;;;;;;4998939;28;20476;-72
2023/01/22 06:47:16;;;;;;;28.67;16.27;;;;;;;;;;5009129;28;20105;-73
2023/01/22 06:49:42;;;;;;;27.45;16.02;;;;;;;;;;4997611;28;20043;-73
2023/01/22 06:52:08;;;;;;;29.70;16.17;;;;;;;;;;5003824;28;20110;-73
2023/01/22 06:54:34;;;;;;;28.88;16.52;;;;;;;;;;5005067;28;20025;-73
2023/01/22 06:57:00;;;;;;;27.98;15.00;;;;;;;;;;4995776;28;20032;-73
2023/01/22 06:59:26;;;;;;;29.42;16.20;;;;;;;;;;5009200;28;20030;-73
2023/01/22 07:01:52;;;;;;;32.17;16.60;;;;;;;;;;4999481;28;20030;-74
2023/01/22 07:04:18;;;;;;;33.13;17.27;;;;;;;;;;5002935;28;20110;-73
2023/01/22 07:06:44;;;;;;;29.77;17.30;;;;;;;;;;5006096;28;20476;-74
2023/01/22 07:09:10;;;;;;;29.20;15.93;;;;;;;;;;4995931;28;20030;-73
2023/01/22 07:11:36;;;;;;;28.23;17.25;;;;;;;;;;5007081;28;20080;-73
2023/01/22 07:14:02;;;;;;;28.85;15.55;;;;;;;;;;5000263;28;20022;-73
2023/01/22 07:16:28;;;;;;;30.02;16.65;;;;;;;;;;5001265;28;20037;-74
2023/01/22 07:18:54;;;;;;;30.70;16.63;;;;;;;;;;5007153;28;20026;-74
2023/01/22 07:21:20;;;;;;;29.80;16.35;;;;;;;;;;4995901;28;20030;-73
2023/01/22 07:23:46;;;;;;;28.50;16.25;;;;;;;;;;5006760;28;20026;-73
2023/01/22 07:26:13;;;;;;;34.38;17.35;;;;;;;;;;5001531;28;20033;-73
2023/01/22 07:28:39;;;;;;;30.15;16.10;;;;;;;;;;4999654;28;20026;-74
2023/01/22 07:31:08;;;;;;;35.50;17.33;;;;;;;;;;5008599;28;20404;-73
2023/01/22 07:33:34;;;;;;;34.70;16.92;;;;;;;;;;4980375;28;20400;-73
2023/01/22 07:36:00;;;;;;;28.08;15.73;;;;;;;;;;5004358;28;20033;-73
2023/01/22 07:38:27;;;;;;;28.60;16.48;;;;;;;;;;5002986;28;20104;-72
2023/01/22 07:40:54;;;;;;;33.58;17.13;;;;;;;;;;4996106;28;20030;-72
2023/01/22 07:43:20;;;;;;;30.27;16.17;;;;;;;;;;5008816;28;20033;-72
2023/01/22 07:45:46;;;;;;;32.03;18.08;;;;;;;;;;4996793;28;20041;-73
2023/01/22 07:48:12;;;;;;;33.47;16.63;;;;;;;;;;5003824;28;20022;-73
2023/01/22 07:50:39;;;;;;;31.25;15.75;;;;;;;;;;5007700;28;20048;-72
2023/01/22 07:53:06;;;;;;;30.63;16.33;;;;;;;;;;4997479;28;20027;-72
2023/01/22 07:55:32;;;;;;;37.38;18.15;;;;;;;;;;5010929;28;20368;-72
2023/01/22 07:58:02;;;;;;;31.35;17.42;;;;;;;;;;5000034;28;20048;-74
2023/01/22 08:00:28;;;;;;;37.08;17.90;;;;;;;;;;5001631;28;20034;-72
2023/01/22 08:02:54;;;;;;;30.67;16.48;;;;;;;;;;5006755;28;20392;-73
2023/01/22 08:05:21;;;;;;;39.35;17.50;;;;;;;;;;4995739;28;20030;-72
2023/01/22 08:07:47;;;;;;;34.05;17.17;;;;;;;;;;5006887;28;20058;-73
2023/01/22 08:10:14;;;;;;;32.55;16.48;;;;;;;;;;5001612;28;20416;-72
2023/01/22 08:12:41;;;;;;;32.45;17.25;;;;;;;;;;4998154;28;20473;-73
2023/01/22 08:15:07;;;;;;;36.38;17.08;;;;;;;;;;5008760;28;20026;-72
2023/01/22 08:17:33;;;;;;;29.48;16.13;;;;;;;;;;4995118;28;20484;-73
2023/01/22 08:19:59;;;;;;;38.92;16.23;;;;;;;;;;5004429;28;20081;-73
2023/01/22 08:22:25;;;;;;;28.73;15.15;;;;;;;;;;5002659;28;20018;-73
2023/01/22 08:24:52;;;;;;;25.30;14.93;;;;;;;;;;4997145;28;20425;-73
2023/01/22 08:27:18;;;;;;;25.50;15.23;;;;;;;;;;5007785;28;20695;-71
2023/01/22 08:29:44;;;;;;;26.80;15.15;;;;;;;;;;4997004;28;20022;-71
2023/01/22 08:32:10;;;;;;;24.65;14.43;;;;;;;;;;5002645;28;20444;-73
2023/01/22 08:34:36;;;;;;;29.13;15.95;;;;;;;;;;5003905;28;20026;-72
2023/01/22 08:37:03;;;;;;;29.85;15.93;;;;;;;;;;4995316;28;20077;-71
2023/01/22 08:39:29;;;;;;;28.90;16.55;;;;;;;;;;5007608;28;20026;-72
2023/01/22 08:41:56;;;;;;;31.25;15.75;;;;;;;;;;4996881;28;20400;-72
2023/01/22 08:44:23;;;;;;;28.85;15.93;;;;;;;;;;4997548;28;20023;-71
2023/01/22 08:46:49;;;;;;;30.90;16.15;;;;;;;;;;4992214;28;20027;-72
2023/01/22 08:49:16;;;;;;;30.17;15.65;;;;;;;;;;4993946;28;20117;-72
2023/01/22 08:51:42;;;;;;;31.38;16.92;;;;;;;;;;4996365;28;20014;-72
2023/01/22 08:54:08;;;;;;;30.65;17.08;;;;;;;;;;4993564;28;20080;-72
2023/01/22 08:56:34;;;;;;;27.85;15.82;;;;;;;;;;5001588;28;20485;-72
2023/01/22 08:59:05;;;;;;;26.70;16.35;;;;;;;;;;4994697;28;20037;-71
2023/01/22 09:01:31;;;;;;;28.35;13.77;;;;;;;;;;5007696;28;20022;-71
2023/01/22 09:03:57;;;;;;;28.77;17.33;;;;;;;;;;4998385;28;20034;-70
2023/01/22 09:06:25;;;;;;;30.55;16.05;;;;;;;;;;5000615;28;20156;-72
2023/01/22 09:08:51;;;;;;;28.80;16.90;;;;;;;;;;5005364;28;20036;-71
2023/01/22 09:11:17;;;;;;;32.90;18.02;;;;;;;;;;4995083;28;20022;-72
2023/01/22 09:13:43;;;;;;;31.65;17.98;;;;;;;;;;5006996;28;20022;-72
2023/01/22 09:16:09;;;;;;;29.92;17.75;;;;;;;;;;5003328;28;20034;-72
2023/01/22 09:18:39;;;;;;;30.45;16.77;;;;;;;;;;5002194;28;20443;-72
2023/01/22 09:21:05;;;;;;;32.20;18.02;;;;;;;;;;4995723;28;20014;-71
2023/01/22 09:23:31;;;;;;;35.70;18.83;;;;;;;;;;4995013;28;20018;-73
2023/01/22 09:25:58;;;;;;;34.25;17.55;;;;;;;;;;5002200;28;20034;-72
2023/01/22 09:28:24;;;;;;;31.38;16.80;;;;;;;;;;5003661;28;20027;-73
2023/01/22 09:30:50;;;;;;;31.42;18.33;;;;;;;;;;5008637;28;20029;-72
2023/01/22 09:33:16;;;;;;;33.67;18.52;;;;;;;;;;4997810;28;20443;-73
2023/01/22 09:35:42;;;;;;;35.92;19.85;;;;;;;;;;5008329;28;20068;-73
2023/01/22 09:38:11;;;;;;;32.70;18.83;;;;;;;;;;5002252;28;20099;-72
2023/01/22 09:40:41;;;;;;;31.65;17.83;;;;;;;;;;4998886;28;20058;-72
2023/01/22 09:43:19;;;;;;;27.42;15.30;;;;;;;;;;5007506;28;20487;-72
2023/01/22 09:45:45;;;;;;;37.42;18.85;;;;;;;;;;4996541;28;20033;-72
2023/01/22 09:48:14;;;;;;;33.40;18.70;;;;;;;;;;5002731;28;20050;-73
2023/01/22 09:50:41;;;;;;;34.10;19.58;;;;;;;;;;5005790;28;20104;-73
2023/01/22 09:53:09;;;;;;;37.58;20.33;;;;;;;;;;4997297;28;20035;-73
2023/01/22 09:55:40;;;;;;;36.00;20.13;;;;;;;;;;5008303;28;20029;-72
2023/01/22 09:58:06;;;;;;;;;;;;;;;;;;5002184;28;20033;-73
2023/01/22 10:00:43;;;;;;;36.85;19.90;;;;;;;;;;5002396;28;19906;-73
2023/01/22 10:03:36;;;;;;;35.80;20.33;;;;;;;;;;5009453;28;20022;-73
2023/01/22 10:06:11;;;;;;;36.90;19.20;;;;;;;;;;4985520;28;20068;-72
2023/01/22 10:08:49;;;;;;;42.30;20.70;;;;;;;;;;5001061;28;20034;-73
2023/01/22 10:11:16;;;;;;;33.90;18.40;;;;;;;;;;5010589;28;20041;-73
2023/01/22 10:13:42;;;;;;;38.08;19.30;;;;;;;;;;4998287;28;20025;-73
2023/01/22 10:16:09;;;;;;;39.25;20.15;;;;;;;;;;5005612;28;20034;-73
2023/01/22 10:18:36;;;;;;;38.10;20.38;;;;;;;;;;5007744;28;20030;-73
2023/01/22 10:21:04;;;;;;;39.40;20.52;;;;;;;;;;4999064;28;20037;-73
2023/01/22 10:23:31;;;;;;;37.35;19.80;;;;;;;;;;5011423;28;20400;-73
2023/01/22 10:26:06;;;;;;;39.38;20.58;;;;;;;;;;5002122;28;20116;-73
2023/01/22 10:28:32;;;;;;;41.55;21.80;;;;;;;;;;5002865;28;20396;-70
2023/01/22 10:30:58;;;;;;;39.83;21.00;;;;;;;;;;5006635;28;20026;-73
2023/01/22 10:33:26;;;;;;;43.80;23.08;;;;;;;;;;4995512;28;20423;-72
2023/01/22 10:35:55;;;;;;;46.65;24.77;;;;;;;;;;5005463;28;20104;-73
2023/01/22 10:38:28;;;;;;;48.83;25.05;;;;;;;;;;5003299;28;20021;-73
2023/01/22 10:41:04;;;;;;;50.55;25.17;;;;;;;;;;4997058;28;20075;-73
2023/01/22 10:43:34;;;;;;;48.53;24.73;;;;;;;;;;5009471;28;20023;-74
2023/01/22 10:46:26;;;;;;;44.90;23.25;;;;;;;;;;4999950;28;20018;-72
2023/01/22 10:49:02;;;;;;;51.10;25.17;;;;;;;;;;4996126;28;20125;-72
2023/01/22 10:51:35;;;;;;;47.15;26.23;;;;;;;;;;5008799;28;20029;-71
2023/01/22 10:54:01;;;;;;;58.05;31.38;;;;;;;;;;5000480;28;20060;-74
2023/01/22 10:56:30;;;;;;;64.03;35.38;;;;;;;;;;5000580;28;20169;-74
2023/01/22 10:58:57;;;;;;;63.60;33.63;;;;;;;;;;5007480;28;20535;-72
2023/01/22 11:01:23;;;;;;;58.75;32.20;;;;;;;;;;4996342;28;20072;-72
2023/01/22 11:03:49;;;;;;;51.83;29.23;;;;;;;;;;5006833;28;20450;-72
2023/01/22 11:06:18;;;;;;;62.08;33.75;;;;;;;;;;5002074;28;20021;-73
2023/01/22 11:08:46;;;;;;;55.00;31.42;;;;;;;;;;4999068;28;20030;-73
2023/01/22 11:11:14;;;;;;;49.72;27.88;;;;;;;;;;5009299;28;20022;-73
2023/01/22 11:13:53;;;;;;;63.10;32.10;;;;;;;;;;4997378;28;20045;-73
2023/01/22 11:16:21;;;;;;;51.25;30.55;;;;;;;;;;5002711;28;20033;-72
2023/01/22 11:18:58;;;;;;;42.42;25.80;;;;;;;;;;5006532;28;20056;-70
2023/01/22 11:21:53;;;;;;;49.97;28.13;;;;;;;;;;4998315;28;20206;-71
2023/01/22 11:24:41;;;;;;;50.28;27.33;;;;;;;;;;4996949;28;20046;-71
2023/01/22 11:27:19;;;;;;;57.08;30.80;;;;;;;;;;5011584;28;20042;-71
2023/01/22 11:30:04;;;;;;;52.15;29.65;;;;;;;;;;4992946;28;20026;-71
2023/01/22 11:32:45;;;;;;;40.78;24.70;;;;;;;;;;4994551;28;20036;-72
2023/01/22 11:35:14;;;;;;;40.20;22.92;;;;;;;;;;5008727;28;20044;-73
2023/01/22 11:37:40;;;;;;;37.95;23.15;;;;;;;;;;4995939;28;20133;-72
2023/01/22 11:40:25;;;;;;;38.90;24.05;;;;;;;;;;5002571;28;20031;-71
2023/01/22 11:43:03;;;;;;;36.10;22.75;;;;;;;;;;5006445;28;20046;-74
2023/01/22 11:45:49;;;;;;;42.08;25.45;;;;;;;;;;4994073;28;20357;-71
2023/01/22 11:48:18;;;;;;;41.08;25.23;;;;;;;;;;4998918;28;20026;-71
2023/01/22 11:50:55;;;;;;;40.28;24.42;;;;;;;;;;5003149;28;20053;-72
2023/01/22 11:53:27;;;;;;;48.30;27.08;;;;;;;;;;4993626;28;20172;-74
2023/01/22 11:56:11;;;;;;;43.65;25.15;;;;;;;;;;5003327;28;20018;-73
2023/01/22 11:58:43;;;;;;;47.60;25.35;;;;;;;;;;4990000;28;20025;-72
2023/01/22 12:01:28;;;;;;;46.55;24.38;;;;;;;;;;4992541;28;20026;-72
2023/01/22 12:04:06;;;;;;;43.45;24.10;;;;;;;;;;4985815;28;20237;-72
2023/01/22 12:06:50;;;;;;;56.80;27.83;;;;;;;;;;4999156;28;20084;-72
2023/01/22 12:09:23;;;;;;;58.92;30.23;;;;;;;;;;5004816;28;20030;-71
2023/01/22 12:11:52;;;;;;;46.55;27.33;;;;;;;;;;4996075;28;20388;-71
2023/01/22 12:14:29;;;;;;;48.42;26.20;;;;;;;;;;5008382;28;20478;-72
2023/01/22 12:17:18;;;;;;;35.65;22.63;;;;;;;;;;5016414;22;20046;-68
2023/01/22 12:19:47;;;;;;;30.35;18.35;;;;;;;;;;4977205;28;20034;-70
2023/01/22 12:22:22;;;;;;;35.30;21.67;;;;;;;;;;5000619;28;20021;-71
2023/01/22 12:24:54;;;;;;;36.70;22.02;;;;;;;;;;4997111;28;20049;-70
2023/01/22 12:27:20;;;;;;;42.47;24.27;;;;;;;;;;5007530;28;20063;-71
2023/01/22 12:29:51;;;;;;;35.33;20.85;;;;;;;;;;4996869;28;20060;-71
2023/01/22 12:32:20;;;;;;;32.75;20.63;;;;;;;;;;5001038;28;20022;-71
2023/01/22 12:34:52;;;;;;;36.92;21.67;;;;;;;;;;5003258;28;20033;-71
2023/01/22 12:37:20;;;;;;;39.72;21.60;;;;;;;;;;4993951;28;20428;-72
2023/01/22 12:40:12;;;;;;;35.08;21.42;;;;;;;;;;5005346;28;20038;-71
2023/01/22 12:42:57;;;;;;;38.05;21.70;;;;;;;;;;4987590;28;20060;-72
2023/01/22 12:45:37;;;;;;;37.08;21.38;;;;;;;;;;4994703;28;20109;-72
2023/01/22 12:48:23;;;;;;;39.20;23.13;;;;;;;;;;5003990;28;20396;-70
2023/01/22 12:50:54;;;;;;;40.17;22.83;;;;;;;;;;5009255;28;20022;-70
2023/01/22 12:53:23;;;;;;;37.10;22.00;;;;;;;;;;4998652;28;20416;-71
2023/01/22 12:56:00;;;;;;;37.88;22.13;;;;;;;;;;5008781;28;20028;-71
2023/01/22 12:58:27;;;;;;;43.58;24.20;;;;;;;;;;5005710;28;20026;-70
2023/01/22 13:00:59;;;;;;;37.13;22.05;;;;;;;;;;5000452;28;20026;-71
2023/01/22 13:03:27;;;;;;;39.40;22.73;;;;;;;;;;5011755;28;20088;-71
2023/01/22 13:05:54;;;;;;;41.47;23.20;;;;;;;;;;5002270;28;20113;-71
2023/01/22 13:08:19;;;;;;;33.40;20.02;;;;;;;;;;5003543;28;20045;-71
2023/01/22 13:11:02;;;;;;;48.10;26.30;;;;;;;;;;5008701;28;20480;-71
2023/01/22 13:13:31;;;;;;;46.80;26.33;;;;;;;;;;4998324;28;20073;-71
2023/01/22 13:16:01;;;;;;;45.47;23.92;;;;;;;;;;5001207;28;20036;-71
2023/01/22 13:18:30;;;;;;;42.15;24.65;;;;;;;;;;5001774;28;20030;-71
2023/01/22 13:20:56;;;;;;;47.70;26.45;;;;;;;;;;5008306;28;20499;-71
2023/01/22 13:23:22;;;;;;;39.45;22.38;;;;;;;;;;4997622;28;20037;-70
2023/01/22 13:25:53;;;;;;;39.03;21.70;;;;;;;;;;5007476;28;20556;-70
2023/01/22 13:28:20;;;;;;;41.70;22.88;;;;;;;;;;4993287;28;20031;-71
2023/01/22 13:30:56;;;;;;;45.85;27.20;;;;;;;;;;5007053;28;20652;-70
2023/01/22 13:33:22;;;;;;;52.72;26.65;;;;;;;;;;4996969;28;20089;-72
2023/01/22 13:35:48;;;;;;;62.63;32.13;;;;;;;;;;5007489;28;20053;-71
2023/01/22 13:38:25;;;;;;;66.18;32.35;;;;;;;;;;5003724;28;20026;-72
2023/01/22 13:41:03;;;;;;;68.80;31.15;;;;;;;;;;4999793;28;20511;-71
2023/01/22 13:43:29;;;;;;;54.58;30.60;;;;;;;;;;5010342;28;20110;-71
2023/01/22 13:45:56;;;;;;;53.25;27.90;;;;;;;;;;5000805;28;20033;-71
2023/01/22 13:48:25;;;;;;;57.00;29.40;;;;;;;;;;5003001;28;20109;-71
2023/01/22 13:50:55;;;;;;;55.15;27.70;;;;;;;;;;5002798;28;20036;-73
2023/01/22 13:53:26;;;;;;;53.60;26.23;;;;;;;;;;4999999;28;20041;-71
2023/01/22 13:55:52;;;;;;;;;;;;;;;;;;5000107;28;20052;-70
2023/01/22 13:58:33;;;;;;;61.65;28.00;;;;;;;;;;4997133;28;19956;-71
2023/01/22 14:00:59;;;;;;;60.70;29.40;;;;;;;;;;4995101;28;20073;-71
2023/01/22 14:03:27;;;;;;;57.40;29.02;;;;;;;;;;5010144;28;20021;-71
2023/01/22 14:06:07;;;;;;;49.85;27.90;;;;;;;;;;5000294;28;20101;-70
2023/01/22 14:08:44;;;;;;;53.03;27.02;;;;;;;;;;5001355;28;20026;-70
2023/01/22 14:11:10;;;;;;;59.30;27.80;;;;;;;;;;5010193;28;20059;-71
2023/01/22 14:13:40;;;;;;;49.72;26.63;;;;;;;;;;4997693;28;20029;-70
2023/01/22 14:16:06;;;;;;;52.75;28.60;;;;;;;;;;5005011;28;20432;-70
2023/01/22 14:18:32;;;;;;;55.08;28.77;;;;;;;;;;4998683;28;20105;-70
2023/01/22 14:20:58;;;;;;;55.83;27.73;;;;;;;;;;5008700;28;20109;-70
2023/01/22 14:23:24;;;;;;;58.03;25.75;;;;;;;;;;4996527;28;20555;-70
2023/01/22 14:25:51;;;;;;;50.70;26.17;;;;;;;;;;5007216;28;20054;-70
2023/01/22 14:28:17;;;;;;;49.20;26.77;;;;;;;;;;5002944;28;20030;-71
2023/01/22 14:30:43;;;;;;;60.53;28.35;;;;;;;;;;4996965;28;20026;-70
2023/01/22 14:33:29;;;;;;;56.33;28.60;;;;;;;;;;5008412;28;20093;-71
2023/01/22 14:35:55;;;;;;;56.10;27.52;;;;;;;;;;4998651;28;20022;-70
2023/01/22 14:38:21;;;;;;;49.72;25.40;;;;;;;;;;5001194;28;20084;-70